Time;durP1;ratioP1;P1;durP2;ratioP2;P2;SDS_P1;SDS_P2;PMS_P1;PMS_P2;Temp;Humidity;BMP_temperature;BMP_pressure;BME280_temperature;BME280_humidity;BME280_pressure;Samples;Min_cycle;Max_cycle;Signal;HPM_P1;HPM_P2
2022/06/10 00:02:10;;;;;;;3.80;3.50;;;;;;;22.17;52.57;98763.70;1647659;86;21418;-70
2022/06/10 00:04:37;;;;;;;3.50;3.20;;;;;;;22.16;52.52;98765.33;1645265;87;20951;-72
2022/06/10 00:07:04;;;;;;;3.83;3.47;;;;;;;22.11;52.52;98760.67;1645292;87;21079;-72
2022/06/10 00:09:33;;;;;;;3.87;3.58;;;;;;;22.11;52.48;98761.50;1645319;87;21248;-69
2022/06/10 00:11:59;;;;;;;3.75;3.08;;;;;;;22.10;52.45;98767.19;1646489;86;20963;-72
2022/06/10 00:14:26;;;;;;;5.67;3.40;;;;;;;22.08;52.46;98767.44;1645369;86;21521;-71
2022/06/10 00:16:52;;;;;;;4.05;3.70;;;;;;;22.06;52.72;98765.53;1645349;87;20935;-71
2022/06/10 00:19:19;;;;;;;4.42;3.40;;;;;;;22.03;52.84;98767.41;1645365;87;20916;-71
2022/06/10 00:21:45;;;;;;;5.20;3.65;;;;;;;22.00;53.08;98763.06;1652750;86;21250;-72
2022/06/10 00:24:12;;;;;;;3.90;3.55;;;;;;;21.96;53.14;98769.53;1648169;86;20908;-71
2022/06/10 00:26:39;;;;;;;4.47;3.35;;;;;;;21.92;53.18;98765.73;1644609;86;21019;-71
2022/06/10 00:29:05;;;;;;;4.95;3.58;;;;;;;21.89;53.41;98762.18;1657188;86;21064;-71
2022/06/10 00:31:31;;;;;;;4.60;3.67;;;;;;;21.82;54.12;98762.89;1673892;85;20927;-73
2022/06/10 00:33:59;;;;;;;5.80;3.90;;;;;;;21.73;54.59;98763.11;1681015;85;21279;-73
2022/06/10 00:36:26;;;;;;;5.85;3.98;;;;;;;21.63;54.77;98753.56;1680827;85;20987;-72
2022/06/10 00:38:52;;;;;;;4.50;3.75;;;;;;;21.59;55.62;98763.81;1681007;85;20888;-72
2022/06/10 00:41:19;;;;;;;5.42;4.62;;;;;;;21.32;56.34;98761.14;1669051;85;20999;-72
2022/06/10 00:43:46;;;;;;;5.83;4.35;;;;;;;21.17;57.13;98763.70;1672776;85;21012;-73
2022/06/10 00:46:34;;;;;;;6.58;4.40;;;;;;;21.17;57.13;98763.70;1686769;84;22113;-71
2022/06/10 00:49:07;;;;;;;7.10;4.20;;;;;;;21.06;57.77;98765.48;1690911;84;20892;-72
2022/06/10 00:51:43;;;;;;;8.55;4.28;;;;;;;20.90;58.30;98765.00;1676483;85;21003;-71
2022/06/10 00:54:32;;;;;;;6.08;4.40;;;;;;;20.78;58.78;98766.48;1715813;82;20954;-72
2022/06/10 00:57:06;;;;;;;5.33;3.83;;;;;;;20.69;59.14;98772.06;1712494;83;21545;-71
2022/06/10 00:59:39;;;;;;;5.28;4.20;;;;;;;20.57;59.52;98764.61;1712501;83;21240;-71
2022/06/10 01:02:09;;;;;;;5.45;4.37;;;;;;;20.51;59.84;98764.28;1677784;82;21556;-71
2022/06/10 01:04:36;;;;;;;4.58;4.10;;;;;;;20.46;60.37;98764.75;1703811;82;20982;-71
2022/06/10 01:07:03;;;;;;;8.30;4.53;;;;;;;20.39;60.62;98768.17;1713769;83;20868;-71
2022/06/10 01:09:30;;;;;;;4.97;4.58;;;;;;;20.32;60.93;98768.34;1713933;83;21480;-72
2022/06/10 01:12:34;;;;;;;4.83;4.42;;;;;;;20.27;61.37;98770.45;1679435;84;21529;-72
2022/06/10 01:15:33;;;;;;;4.72;4.25;;;;;;;20.22;61.70;98772.22;1661475;84;21020;-71
2022/06/10 01:18:22;;;;;;;5.47;4.40;;;;;;;20.17;61.88;98763.53;1713682;83;20903;-71
2022/06/10 01:21:21;;;;;;;4.25;3.95;;;;;;;20.16;62.00;98771.33;1717259;82;20915;-71
2022/06/10 01:24:21;;;;;;;5.40;4.25;;;;;;;20.15;61.88;98772.39;1700959;82;20903;-72
2022/06/10 01:30:39;;;;;;;4.40;4.00;;;;;;;20.15;61.79;98778.34;1712843;82;21455;-71
2022/06/10 01:33:21;;;;;;;8.63;4.55;;;;;;;20.13;62.15;98782.63;1694868;82;20975;-72
2022/06/10 01:36:20;;;;;;;8.60;4.20;;;;;;;20.05;62.62;98780.91;1706604;82;20990;-72
2022/06/10 01:38:53;;;;;;;4.10;3.40;;;;;;;19.96;62.67;98781.02;1744109;82;21011;-72
2022/06/10 01:41:44;;;;;;;4.55;3.85;;;;;;;19.92;62.60;98785.30;1715290;82;21152;-72
2022/06/10 01:44:40;;;;;;;7.30;4.22;;;;;;;19.91;62.71;98787.17;1737369;82;21480;-71
2022/06/10 01:47:16;;;;;;;4.50;4.10;;;;;;;19.87;62.85;98782.48;1743868;82;20974;-72
2022/06/10 01:49:54;;;;;;;8.00;3.87;;;;;;;19.81;62.90;98784.32;1743978;82;20943;-71
2022/06/10 01:52:36;;;;;;;4.35;3.95;;;;;;;19.82;63.03;98787.81;1741180;82;20872;-71
2022/06/10 01:55:18;;;;;;;4.90;4.28;;;;;;;19.84;62.98;98791.89;1712333;83;21318;-71
2022/06/10 01:57:59;;;;;;;5.67;3.95;;;;;;;19.86;62.88;98784.39;1712032;83;21062;-72
2022/06/10 02:00:31;;;;;;;5.33;4.08;;;;;;;19.89;62.90;98788.48;1703639;83;21489;-71
2022/06/10 02:03:09;;;;;;;4.75;4.22;;;;;;;19.88;62.93;98786.84;1713400;82;20901;-71
2022/06/10 02:05:40;;;;;;;5.60;4.60;;;;;;;19.88;62.96;98790.88;1733098;82;21547;-72
2022/06/10 02:08:27;;;;;;;6.33;4.60;;;;;;;19.88;63.03;98797.63;1744017;82;21262;-72
2022/06/10 02:11:08;;;;;;;4.80;4.22;;;;;;;19.87;63.11;98798.69;1743974;82;20935;-73
2022/06/10 02:13:57;;;;;;;4.85;4.45;;;;;;;19.87;63.05;98795.45;1724026;82;21006;-72
2022/06/10 02:16:30;;;;;;;5.17;4.67;;;;;;;19.86;63.02;98797.89;1713626;83;21015;-73
2022/06/10 02:19:05;;;;;;;6.83;4.05;;;;;;;19.86;63.04;98801.11;1713524;83;21035;-72
2022/06/10 02:21:47;;;;;;;4.35;3.92;;;;;;;19.85;63.32;98808.91;1713755;83;21157;-71
2022/06/10 02:24:24;;;;;;;4.85;4.40;;;;;;;19.79;63.56;98811.27;1683118;82;21481;-73
2022/06/10 02:26:51;;;;;;;4.35;3.95;;;;;;;19.67;63.69;98821.59;1681824;85;20959;-69
2022/06/10 02:29:26;;;;;;;4.40;4.00;;;;;;;19.56;64.09;98815.73;1681670;85;20966;-70
2022/06/10 02:31:56;;;;;;;6.95;4.05;;;;;;;19.52;64.29;98816.48;1681873;85;20895;-71
2022/06/10 02:34:22;;;;;;;6.17;4.25;;;;;;;19.51;64.34;98812.95;1735094;82;21888;-71
2022/06/10 02:37:26;;;;;;;4.33;3.92;;;;;;;19.56;64.04;98808.99;1722770;82;21516;-71
2022/06/10 02:40:17;;;;;;;4.65;3.95;;;;;;;19.61;63.71;98818.52;1744003;82;20938;-71
2022/06/10 02:43:09;;;;;;;4.83;4.33;;;;;;;19.66;63.97;98810.51;1730838;82;21895;-71
2022/06/10 02:46:13;;;;;;;4.25;3.95;;;;;;;19.69;64.38;98812.72;1686052;82;21635;-71
2022/06/10 02:48:53;;;;;;;4.20;3.80;;;;;;;19.69;64.42;98814.06;1711928;83;21791;-72
2022/06/10 02:51:20;;;;;;;4.10;3.33;;;;;;;19.78;63.93;98815.84;1711884;83;21002;-71
2022/06/10 02:53:47;;;;;;;5.47;4.03;;;;;;;19.87;63.53;98812.17;1731473;82;20962;-70
2022/06/10 02:56:18;;;;;;;3.77;3.47;;;;;;;19.96;63.31;98812.06;1744054;82;20899;-72
2022/06/10 03:01:38;;;;;;;7.80;4.05;;;;;;;20.13;62.99;98818.25;1725019;82;21171;-72
2022/06/10 03:04:27;;;;;;;5.50;4.17;;;;;;;20.15;63.41;98821.55;1733236;82;21022;-72
2022/06/10 03:07:24;;;;;;;4.30;3.90;;;;;;;20.13;63.71;98825.83;1744076;82;20924;-71
2022/06/10 03:10:17;;;;;;;4.97;4.37;;;;;;;20.14;63.50;98825.30;1743901;82;21450;-71
2022/06/10 03:12:53;;;;;;;5.37;3.50;;;;;;;20.18;63.37;98836.70;1735332;82;21033;-71
2022/06/10 03:15:55;;;;;;;5.37;3.72;;;;;;;20.27;62.94;98827.69;1648155;82;21253;-72
2022/06/10 03:19:00;;;;;;;4.17;3.67;;;;;;;20.39;62.21;98831.09;1743910;82;20891;-72
2022/06/10 03:21:57;;;;;;;5.08;4.30;;;;;;;20.59;61.38;98838.67;1743878;82;20943;-71
2022/06/10 03:24:37;;;;;;;4.33;3.90;;;;;;;20.84;60.66;98836.29;1732566;82;20903;-71
2022/06/10 03:27:14;;;;;;;6.10;3.80;;;;;;;21.10;60.08;98830.67;1711974;83;21485;-71
2022/06/10 03:30:05;;;;;;;4.87;3.98;;;;;;;21.35;59.53;98841.23;1712050;83;21299;-71
2022/06/10 03:32:45;;;;;;;7.37;4.22;;;;;;;21.62;58.86;98841.23;1710943;82;20896;-72
2022/06/10 03:35:29;;;;;;;6.00;4.20;;;;;;;21.88;58.37;98827.41;1706926;83;20927;-71
2022/06/10 03:37:56;;;;;;;5.10;3.75;;;;;;;22.19;57.55;98829.83;1709124;83;20975;-71
2022/06/10 03:40:26;;;;;;;6.97;3.50;;;;;;;22.69;56.23;98838.27;1712107;83;20943;-71
2022/06/10 03:42:57;;;;;;;4.83;3.83;;;;;;;23.25;54.71;98840.13;1720577;82;21512;-71
2022/06/10 03:45:28;;;;;;;5.03;4.53;;;;;;;23.81;53.25;98841.05;1721540;82;20895;-71
2022/06/10 03:47:54;;;;;;;5.85;5.25;;;;;;;24.38;51.83;98835.33;1712174;82;21470;-71
2022/06/10 03:50:28;;;;;;;8.55;6.42;;;;;;;24.73;50.80;98827.63;1712589;83;20883;-71
2022/06/10 03:52:54;;;;;;;7.47;6.10;;;;;;;25.08;49.79;98829.43;1714662;82;21877;-70
2022/06/10 03:55:21;;;;;;;7.85;5.67;;;;;;;25.33;49.44;98831.19;1723787;83;21222;-72
2022/06/10 03:57:48;;;;;;;11.68;10.48;;;;;;;25.25;49.10;98829.05;1723759;83;21476;-71
2022/06/10 04:00:22;;;;;;;5.85;5.33;;;;;;;25.07;49.01;98829.14;1723832;83;20987;-71
2022/06/10 04:02:50;;;;;;;7.17;5.83;;;;;;;24.89;48.85;98840.12;1699761;82;20947;-73
2022/06/10 04:05:17;;;;;;;5.20;4.80;;;;;;;24.66;49.25;98838.00;1679528;85;20996;-71
2022/06/10 04:07:43;;;;;;;6.50;4.87;;;;;;;24.43;49.68;98839.39;1679546;85;21697;-71
2022/06/10 04:10:20;;;;;;;5.58;4.80;;;;;;;24.26;50.10;98843.51;1679452;85;21568;-72
2022/06/10 04:12:46;;;;;;;11.20;5.33;;;;;;;24.07;50.55;98854.62;1682101;82;20923;-71
2022/06/10 04:15:16;;;;;;;8.23;4.85;;;;;;;23.92;51.22;98847.30;1679394;85;20955;-70
2022/06/10 04:17:49;;;;;;;5.05;4.50;;;;;;;23.87;51.62;98846.77;1679544;85;21430;-70
2022/06/10 04:20:20;;;;;;;5.75;5.15;;;;;;;23.87;51.61;98843.23;1679385;85;21889;-71
2022/06/10 04:22:47;;;;;;;5.10;4.58;;;;;;;23.89;51.63;98848.66;1681674;82;20987;-71
2022/06/10 04:25:14;;;;;;;18.40;16.50;;;;;;;23.95;51.75;98844.05;1680537;82;20935;-71
2022/06/10 04:27:41;;;;;;;16.57;10.78;;;;;;;24.03;51.83;98844.86;1712253;83;21012;-71
2022/06/10 04:30:11;;;;;;;9.13;6.47;;;;;;;24.10;52.15;98849.50;1712356;82;21059;-71
2022/06/10 04:32:38;;;;;;;8.90;6.10;;;;;;;24.19;52.36;98855.20;1692292;82;21344;-72
2022/06/10 04:35:06;;;;;;;9.78;6.00;;;;;;;24.27;52.67;98852.73;1723839;82;20922;-71
2022/06/10 04:37:34;;;;;;;9.80;5.37;;;;;;;24.35;52.65;98852.75;1724008;82;20936;-72
2022/06/10 04:40:00;;;;;;;8.78;5.55;;;;;;;24.36;52.70;98849.74;1723791;82;21019;-71
2022/06/10 04:42:26;;;;;;;9.60;5.17;;;;;;;24.38;53.02;98852.17;1722017;82;20970;-70
2022/06/10 04:44:53;;;;;;;4.97;4.50;;;;;;;24.39;53.52;98853.27;1723988;82;21251;-71
2022/06/10 04:47:20;;;;;;;5.25;4.37;;;;;;;24.37;52.93;98854.10;1723612;82;20987;-70
2022/06/10 04:49:46;;;;;;;6.15;5.17;;;;;;;24.34;52.46;98860.08;1723883;82;20924;-73
2022/06/10 04:52:13;;;;;;;15.28;5.50;;;;;;;24.31;53.32;98870.14;1722898;82;20947;-71
2022/06/10 04:54:41;;;;;;;28.70;10.00;;;;;;;24.28;54.54;98870.68;1716662;82;20883;-71
2022/06/10 04:57:08;;;;;;;22.95;9.15;;;;;;;24.25;55.26;98869.04;1724144;83;21254;-71
2022/06/10 04:59:35;;;;;;;24.45;8.53;;;;;;;24.20;55.52;98867.69;1724000;83;21105;-71
2022/06/10 05:02:02;;;;;;;14.53;6.85;;;;;;;24.19;55.35;98873.69;1716937;82;20892;-71
2022/06/10 05:04:28;;;;;;;7.20;5.22;;;;;;;24.15;55.49;98876.67;1721312;82;20947;-71
2022/06/10 05:06:55;;;;;;;8.75;4.75;;;;;;;24.11;55.28;98870.70;1723057;82;20970;-71
2022/06/10 05:09:22;;;;;;;7.20;5.30;;;;;;;24.09;54.16;98876.95;1723894;83;21607;-71
2022/06/10 05:11:49;;;;;;;8.25;5.28;;;;;;;24.08;55.05;98892.44;1716561;82;20947;-72
2022/06/10 05:14:17;;;;;;;8.13;5.12;;;;;;;23.91;54.40;98888.58;1712351;83;20998;-71
2022/06/10 05:16:44;;;;;;;9.60;5.03;;;;;;;23.79;54.57;98889.39;1714628;82;20927;-70
2022/06/10 05:19:10;;;;;;;6.53;4.72;;;;;;;23.81;54.60;98889.11;1723892;83;20994;-70
2022/06/10 05:21:38;;;;;;;4.62;4.22;;;;;;;23.93;54.58;98892.41;1717449;82;21570;-72
2022/06/10 05:24:05;;;;;;;6.72;4.70;;;;;;;24.06;54.37;98886.43;1714039;82;20876;-71
2022/06/10 05:26:32;;;;;;;5.75;4.45;;;;;;;24.29;53.79;98888.63;1719174;82;20919;-71
2022/06/10 05:29:00;;;;;;;5.60;4.17;;;;;;;24.88;52.98;98886.63;1712181;83;20956;-71
2022/06/10 05:31:27;;;;;;;6.83;4.22;;;;;;;26.63;50.34;98878.95;1716874;82;20986;-71
2022/06/10 05:36:40;;;;;;;9.15;4.05;;;;;;;29.79;42.49;98876.78;1724335;82;28302;-70
2022/06/10 05:39:06;;;;;;;6.40;4.35;;;;;;;30.50;40.20;98872.53;1723416;82;21497;-72
2022/06/10 05:44:18;;;;;;;5.22;3.80;;;;;;;33.07;35.97;98879.36;1719711;83;20924;-71
2022/06/10 05:46:44;;;;;;;4.30;3.83;;;;;;;34.91;32.87;98874.66;1713133;83;21217;-70
2022/06/10 05:49:11;;;;;;;4.83;4.28;;;;;;;35.68;31.31;98868.07;1720716;82;20946;-68
2022/06/10 05:51:38;;;;;;;4.37;3.60;;;;;;;36.28;30.35;98872.02;1717063;82;21041;-70
2022/06/10 05:54:05;;;;;;;11.93;4.03;;;;;;;37.49;28.77;98873.95;1711696;83;21151;-70
2022/06/10 05:56:31;;;;;;;14.38;4.08;;;;;;;38.85;27.18;98869.38;1711782;83;20887;-70
2022/06/10 05:58:58;;;;;;;8.08;3.87;;;;;;;39.97;25.67;98865.33;1712941;82;21248;-71
2022/06/10 06:01:24;;;;;;;4.90;3.75;;;;;;;40.92;23.76;98865.58;1710871;82;21473;-70
2022/06/10 06:03:50;;;;;;;10.72;3.70;;;;;;;41.76;23.10;98871.79;1684896;85;21015;-71
2022/06/10 06:06:19;;;;;;;12.35;3.83;;;;;;;42.68;22.34;98867.93;1697399;82;20995;-73
2022/06/10 06:08:48;;;;;;;9.70;3.90;;;;;;;43.52;21.18;98874.69;1704496;82;21099;-69
2022/06/10 06:11:18;;;;;;;10.65;3.65;;;;;;;44.34;20.37;98880.23;1714055;83;21152;-73
2022/06/10 06:13:45;;;;;;;5.85;3.27;;;;;;;45.06;19.06;98874.33;1710178;82;21036;-75
2022/06/10 06:16:16;;;;;;;8.40;3.42;;;;;;;45.50;18.68;98877.12;1711822;82;21508;-76
2022/06/10 06:18:42;;;;;;;8.78;3.20;;;;;;;45.88;16.97;98887.17;1713460;82;21026;-73
2022/06/10 06:21:10;;;;;;;4.45;2.70;;;;;;;45.88;16.61;98885.77;1707638;82;20987;-75
2022/06/10 06:23:37;;;;;;;5.37;4.58;;;;;;;45.89;16.72;98892.19;1709587;82;21173;-74
2022/06/10 06:26:04;;;;;;;4.97;4.17;;;;;;;46.11;16.72;98887.10;1715800;82;21002;-75
2022/06/10 06:28:31;;;;;;;5.42;3.35;;;;;;;46.35;16.80;98884.56;1709083;83;21002;-77
2022/06/10 06:30:57;;;;;;;7.17;3.40;;;;;;;46.83;16.62;98885.08;1723834;83;20968;-75
2022/06/10 06:33:23;;;;;;;7.80;3.40;;;;;;;47.24;16.29;98895.29;1726531;83;20921;-73
2022/06/10 06:35:52;;;;;;;6.28;3.20;;;;;;;47.52;16.27;98891.97;1726045;83;21250;-74
2022/06/10 06:38:18;;;;;;;3.92;3.35;;;;;;;47.90;15.61;98887.61;1726044;83;20898;-74
2022/06/10 06:40:44;;;;;;;4.30;3.37;;;;;;;48.21;14.93;98884.75;1721616;83;20852;-73
2022/06/10 06:43:11;;;;;;;5.28;3.30;;;;;;;48.38;15.02;98884.17;1715390;83;20947;-76
2022/06/10 06:45:38;;;;;;;5.05;3.30;;;;;;;48.73;15.09;98884.00;1709505;83;20998;-77
2022/06/10 06:48:10;;;;;;;4.28;3.25;;;;;;;48.87;14.25;98888.70;1705997;83;21350;-76
2022/06/10 06:50:45;;;;;;;8.23;3.22;;;;;;;48.94;14.52;98889.16;1723374;81;20946;-74
2022/06/10 06:53:12;;;;;;;4.53;3.17;;;;;;;49.25;14.63;98889.59;1726632;81;21012;-73
2022/06/10 06:55:39;;;;;;;3.85;3.10;;;;;;;49.58;14.53;98895.97;1722037;82;20969;-72
2022/06/10 06:58:09;;;;;;;4.25;3.47;;;;;;;49.75;13.91;98898.30;1716278;81;21017;-73
2022/06/10 07:00:35;;;;;;;5.97;3.27;;;;;;;49.85;13.66;98892.98;1726083;81;21251;-74
2022/06/10 07:03:04;;;;;;;4.53;2.70;;;;;;;50.11;13.71;98893.86;1725136;81;20931;-78
2022/06/10 07:05:31;;;;;;;6.25;2.77;;;;;;;50.64;13.38;98894.45;1721693;81;20935;-69
2022/06/10 07:07:58;;;;;;;3.40;3.10;;;;;;;50.87;12.61;98895.35;1714752;81;20915;-72
2022/06/10 07:10:25;;;;;;;3.92;2.90;;;;;;;50.65;12.50;98892.42;1689385;85;21007;-72
2022/06/10 07:12:52;;;;;;;16.20;3.55;;;;;;;50.78;12.57;98898.86;1689490;85;21146;-73
2022/06/10 07:15:21;;;;;;;5.55;3.42;;;;;;;51.12;12.45;98900.98;1689441;85;20994;-73
2022/06/10 07:17:48;;;;;;;4.92;2.90;;;;;;;51.10;10.71;98900.05;1689278;85;20998;-74
2022/06/10 07:20:25;;;;;;;4.10;3.20;;;;;;;50.79;10.61;98898.25;1689311;85;20967;-74
2022/06/10 07:22:51;;;;;;;7.05;3.00;;;;;;;50.97;10.54;98900.69;1689381;85;20954;-74
2022/06/10 07:25:18;;;;;;;4.58;3.12;;;;;;;51.43;10.45;98903.98;1689402;85;21649;-73
2022/06/10 07:27:44;;;;;;;3.02;2.50;;;;;;;51.99;10.29;98894.09;1689224;85;20872;-73
2022/06/10 07:30:15;;;;;;;3.62;2.60;;;;;;;52.27;9.56;98898.69;1689380;85;20934;-72
2022/06/10 07:32:43;;;;;;;3.00;2.50;;;;;;;52.33;9.35;98900.44;1689335;85;21501;-73
2022/06/10 07:35:10;;;;;;;6.25;2.95;;;;;;;52.12;9.45;98901.89;1689296;85;20950;-74
2022/06/10 07:37:37;;;;;;;2.47;2.27;;;;;;;52.10;9.99;98902.98;1689292;85;21254;-76
2022/06/10 07:40:05;;;;;;;3.15;2.42;;;;;;;52.22;9.42;98907.77;1689234;85;20955;-74
2022/06/10 07:42:34;;;;;;;4.37;2.47;;;;;;;52.37;9.66;98905.98;1689622;85;20947;-73
2022/06/10 07:45:02;;;;;;;2.40;2.20;;;;;;;52.64;9.51;98909.61;1689442;85;20939;-72
2022/06/10 07:47:28;;;;;;;4.15;2.08;;;;;;;52.60;8.78;98904.69;1686000;84;21525;-73
2022/06/10 07:49:55;;;;;;;2.35;2.00;;;;;;;52.35;8.76;98907.88;1674091;85;21072;-73
2022/06/10 07:52:25;;;;;;;4.10;2.27;;;;;;;51.93;8.79;98912.94;1674077;85;21410;-73
2022/06/10 07:54:50;;;;;;;4.33;2.35;;;;;;;51.26;8.90;98914.70;1674129;85;20904;-72
2022/06/10 07:57:17;;;;;;;3.20;2.12;;;;;;;50.87;9.29;98918.00;1674082;85;21008;-74
2022/06/10 07:59:45;;;;;;;4.28;2.08;;;;;;;50.82;9.50;98922.17;1674211;85;21017;-72
2022/06/10 08:02:13;;;;;;;8.28;2.70;;;;;;;50.65;9.67;98917.89;1674156;85;21384;-71
2022/06/10 08:04:40;;;;;;;3.87;1.85;;;;;;;50.05;10.13;98917.66;1674153;85;20915;-74
2022/06/10 08:07:06;;;;;;;3.20;2.30;;;;;;;49.74;10.18;98919.34;1674272;85;21047;-72
2022/06/10 08:09:32;;;;;;;2.95;2.02;;;;;;;49.61;10.42;98919.11;1674256;85;20995;-73
2022/06/10 08:11:59;;;;;;;2.40;2.20;;;;;;;49.80;10.58;98911.11;1674164;85;21470;-73
2022/06/10 08:14:25;;;;;;;2.33;1.85;;;;;;;50.22;10.41;98916.17;1674348;85;21251;-75
2022/06/10 08:16:54;;;;;;;2.83;1.85;;;;;;;50.67;10.07;98910.35;1674191;85;21517;-71
2022/06/10 08:19:22;;;;;;;3.83;2.00;;;;;;;50.98;10.03;98917.03;1674421;85;20876;-72
2022/06/10 08:24:34;;;;;;;3.00;2.55;;;;;;;51.58;9.75;98915.77;1676658;85;20904;-70
2022/06/10 08:27:01;;;;;;;2.27;1.80;;;;;;;51.27;10.28;98914.86;1675525;85;21183;-74
2022/06/10 08:29:27;;;;;;;1.77;1.67;;;;;;;51.33;9.78;98918.70;1674275;85;20904;-75
2022/06/10 08:31:54;;;;;;;4.62;1.57;;;;;;;51.40;9.50;98917.64;1674437;85;20959;-73
2022/06/10 08:34:20;;;;;;;1.60;1.50;;;;;;;51.24;8.97;98921.40;1674193;85;21004;-74
2022/06/10 08:36:47;;;;;;;3.50;1.52;;;;;;;50.25;9.64;98916.07;1674241;85;21039;-72
2022/06/10 08:39:14;;;;;;;2.77;1.80;;;;;;;49.98;9.81;98919.91;1674260;85;21877;-73
2022/06/10 08:42:13;;;;;;;3.20;1.92;;;;;;;49.90;10.08;98920.70;1674074;85;21434;-72
2022/06/10 08:44:51;;;;;;;1.95;1.62;;;;;;;49.56;10.01;98921.83;1674244;85;20947;-72
2022/06/10 08:47:38;;;;;;;3.10;1.60;;;;;;;48.68;10.67;98920.56;1674095;85;21007;-73
2022/06/10 08:50:42;;;;;;;4.75;1.70;;;;;;;48.59;10.67;98923.83;1681817;85;20939;-72
2022/06/10 08:53:32;;;;;;;1.40;1.37;;;;;;;48.06;10.97;98917.27;1681868;85;21280;-74
2022/06/10 08:56:32;;;;;;;1.65;1.55;;;;;;;48.01;11.26;98922.01;1681613;85;21521;-75
2022/06/10 08:59:22;;;;;;;1.65;1.55;;;;;;;47.94;11.50;98925.59;1662742;85;21003;-73
2022/06/10 09:02:03;;;;;;;10.43;2.12;;;;;;;47.85;10.33;98927.57;1681766;85;20923;-73
2022/06/10 09:04:55;;;;;;;2.25;1.40;;;;;;;46.78;11.10;98924.95;1681788;85;21043;-73
2022/06/10 09:07:34;;;;;;;5.85;1.67;;;;;;;46.95;11.59;98930.12;1681863;85;21963;-74
2022/06/10 09:10:03;;;;;;;1.45;1.35;;;;;;;46.71;11.93;98927.05;1677166;85;22030;-73
2022/06/10 09:13:25;;;;;;;2.10;1.67;;;;;;;46.76;11.45;98930.22;1681716;85;20896;-74
2022/06/10 09:16:18;;;;;;;1.80;1.40;;;;;;;46.69;11.74;98930.91;1681909;85;20888;-73
2022/06/10 09:19:04;;;;;;;3.27;1.70;;;;;;;47.58;11.32;98926.27;1682099;85;21050;-72
2022/06/10 09:21:43;;;;;;;1.90;1.50;;;;;;;47.58;10.80;98930.50;1681981;85;21160;-73
2022/06/10 09:24:15;;;;;;;1.72;1.52;;;;;;;47.66;10.45;98923.47;1680258;85;21497;-76
2022/06/10 09:26:47;;;;;;;2.52;1.92;;;;;;;47.84;10.55;98930.23;1679343;85;21457;-72
2022/06/10 09:29:14;;;;;;;3.20;1.50;;;;;;;47.99;10.42;98931.52;1680561;85;20884;-74
2022/06/10 09:31:58;;;;;;;4.12;1.57;;;;;;;47.82;10.42;98934.06;1681732;85;21008;-75
2022/06/10 09:34:46;;;;;;;2.77;1.32;;;;;;;47.64;10.71;98930.77;1681829;85;21858;-74
2022/06/10 09:37:32;;;;;;;2.22;1.72;;;;;;;48.28;10.46;98935.38;1681604;85;20899;-73
2022/06/10 09:43:08;;;;;;;5.20;1.90;;;;;;;48.65;10.14;98939.02;1681826;85;20984;-73
2022/06/10 09:45:49;;;;;;;1.95;1.72;;;;;;;48.08;10.17;98930.31;1661742;85;20939;-73
2022/06/10 09:48:54;;;;;;;2.45;1.70;;;;;;;48.51;10.38;98933.66;1681123;85;21091;-73
2022/06/10 09:51:41;;;;;;;1.22;1.22;;;;;;;48.13;10.74;98938.26;1667290;85;21014;-74
2022/06/10 09:54:31;;;;;;;3.52;1.50;;;;;;;47.11;11.05;98935.33;1674128;85;21008;-72
2022/06/10 09:57:34;;;;;;;3.92;1.52;;;;;;;46.20;11.45;98941.61;1674206;85;20923;-72
2022/06/10 10:00:25;;;;;;;2.58;1.65;;;;;;;44.79;12.23;98933.05;1673984;85;20911;-71
2022/06/10 10:03:13;;;;;;;1.82;1.72;;;;;;;43.10;13.44;98939.88;1674192;85;21153;-73
2022/06/10 10:06:23;;;;;;;1.65;1.55;;;;;;;41.92;14.63;98937.09;1674168;85;20983;-72
2022/06/10 10:09:16;;;;;;;2.25;1.32;;;;;;;40.97;15.32;98944.70;1674210;85;21573;-72
2022/06/10 10:11:57;;;;;;;2.10;1.70;;;;;;;39.72;16.73;98949.09;1674177;85;20959;-74
2022/06/10 10:14:53;;;;;;;2.00;1.90;;;;;;;38.57;17.98;98946.08;1674214;85;20904;-73
2022/06/10 10:17:52;;;;;;;2.37;1.60;;;;;;;38.14;18.48;98947.77;1674362;85;21274;-74
2022/06/10 10:20:36;;;;;;;4.72;1.60;;;;;;;37.70;19.36;98959.05;1673970;85;20955;-73
2022/06/10 10:23:14;;;;;;;1.92;1.50;;;;;;;36.99;19.35;98953.74;1662826;85;20912;-73
2022/06/10 10:25:44;;;;;;;2.15;1.42;;;;;;;36.49;20.07;98952.95;1673890;85;20959;-76
2022/06/10 10:28:22;;;;;;;2.30;1.57;;;;;;;36.15;20.48;98954.91;1647627;85;20872;-75
2022/06/10 10:31:21;;;;;;;4.53;1.55;;;;;;;35.96;20.59;98946.38;1673772;85;21151;-73
2022/06/10 10:33:48;;;;;;;3.00;1.77;;;;;;;35.83;20.76;98937.88;1674071;85;21054;-72
2022/06/10 10:36:31;;;;;;;3.47;1.47;;;;;;;35.77;21.71;98947.60;1674051;85;21365;-72
2022/06/10 10:39:16;;;;;;;2.67;1.70;;;;;;;35.56;20.72;98946.94;1674085;85;21051;-74
2022/06/10 10:41:45;;;;;;;1.70;1.60;;;;;;;35.21;21.10;98948.75;1662908;85;20940;-75
2022/06/10 10:44:31;;;;;;;2.47;1.62;;;;;;;35.06;21.48;98941.14;1674152;85;21883;-72
2022/06/10 10:47:13;;;;;;;3.77;1.47;;;;;;;34.90;22.01;98933.26;1674314;85;20955;-73
2022/06/10 10:49:53;;;;;;;2.42;1.60;;;;;;;34.79;22.38;98947.27;1674267;85;20931;-73
2022/06/10 10:52:32;;;;;;;3.37;1.57;;;;;;;34.62;22.24;98944.71;1674190;85;20916;-73
2022/06/10 10:55:19;;;;;;;4.25;1.55;;;;;;;34.52;22.49;98947.28;1673217;85;20959;-73
2022/06/10 10:57:57;;;;;;;3.10;1.60;;;;;;;34.47;22.61;98945.33;1674191;85;21131;-74
2022/06/10 11:00:33;;;;;;;3.65;1.72;;;;;;;34.27;22.60;98941.44;1670803;85;20941;-73
2022/06/10 11:03:03;;;;;;;3.00;1.30;;;;;;;34.24;22.66;98943.48;1674303;85;20953;-74
2022/06/10 11:05:36;;;;;;;2.52;1.25;;;;;;;34.27;22.72;98932.34;1674290;85;20951;-72
2022/06/10 11:08:23;;;;;;;1.90;1.30;;;;;;;34.33;22.28;98936.52;1674199;85;21399;-73
2022/06/10 11:11:17;;;;;;;4.33;1.42;;;;;;;34.40;22.27;98929.86;1674057;85;20987;-73
2022/06/10 11:14:02;;;;;;;5.80;1.60;;;;;;;34.38;22.17;98935.73;1674087;85;20932;-73
2022/06/10 11:16:38;;;;;;;2.12;1.50;;;;;;;34.22;22.13;98940.27;1674068;85;21525;-73
2022/06/10 11:19:23;;;;;;;1.52;1.25;;;;;;;34.04;21.67;98934.63;1673936;85;20943;-73
2022/06/10 11:21:55;;;;;;;1.55;1.45;;;;;;;33.85;21.26;98937.86;1673994;85;20959;-73
2022/06/10 11:24:28;;;;;;;2.47;1.22;;;;;;;33.72;22.22;98937.55;1669838;85;21542;-73
2022/06/10 11:26:58;;;;;;;2.60;1.40;;;;;;;33.57;22.75;98942.27;1674135;85;21489;-73
2022/06/10 11:29:27;;;;;;;2.27;1.40;;;;;;;33.44;22.55;98940.53;1674237;85;20920;-73
2022/06/10 11:31:59;;;;;;;1.60;1.50;;;;;;;33.29;23.05;98939.73;1674165;85;21512;-73
2022/06/10 11:34:38;;;;;;;1.42;1.25;;;;;;;33.16;23.06;98938.01;1674105;85;21600;-73
2022/06/10 11:37:34;;;;;;;3.22;1.45;;;;;;;33.06;23.42;98929.52;1674092;85;21190;-73
2022/06/10 11:40:24;;;;;;;1.57;1.47;;;;;;;33.03;23.75;98935.69;1674174;85;20948;-71
2022/06/10 11:43:03;;;;;;;1.80;1.50;;;;;;;33.06;22.71;98927.36;1649860;85;21035;-72
2022/06/10 11:45:56;;;;;;;1.62;1.52;;;;;;;33.07;22.98;98935.28;1673561;85;20900;-75
2022/06/10 11:48:40;;;;;;;3.15;1.35;;;;;;;32.98;23.13;98931.73;1674479;85;20872;-72
2022/06/10 11:51:31;;;;;;;2.95;1.27;;;;;;;32.87;23.45;98927.72;1690384;85;21219;-71
2022/06/10 11:54:26;;;;;;;1.22;1.20;;;;;;;32.89;23.99;98930.38;1690071;84;21480;-74
2022/06/10 12:00:10;;;;;;;1.45;1.35;;;;;;;32.91;23.22;98926.72;1689503;85;20955;-74
2022/06/10 12:03:30;;;;;;;2.25;1.70;;;;;;;32.85;23.48;98925.28;1689363;84;20899;-75
2022/06/10 12:06:27;;;;;;;1.75;1.47;;;;;;;32.80;24.59;98928.22;1689430;84;20946;-74
2022/06/10 12:09:22;;;;;;;4.28;1.60;;;;;;;32.65;24.55;98919.11;1689444;85;20931;-73
2022/06/10 12:11:54;;;;;;;2.22;1.47;;;;;;;32.47;24.82;98920.26;1689385;84;20990;-73
2022/06/10 12:14:31;;;;;;;2.12;1.70;;;;;;;32.25;24.96;98914.38;1689453;85;21056;-75
2022/06/10 12:17:06;;;;;;;2.90;1.70;;;;;;;32.16;25.30;98911.40;1689404;84;21571;-73
2022/06/10 12:19:38;;;;;;;3.10;1.80;;;;;;;32.12;25.17;98915.95;1689261;84;21255;-74
2022/06/10 12:22:04;;;;;;;2.52;1.75;;;;;;;32.13;25.56;98910.67;1689335;84;20935;-74
2022/06/10 12:24:31;;;;;;;1.70;1.60;;;;;;;32.21;26.54;98914.80;1689283;84;20879;-72
2022/06/10 12:27:04;;;;;;;2.85;1.40;;;;;;;32.33;27.23;98900.36;1689362;85;21481;-74
2022/06/10 12:29:54;;;;;;;1.70;1.60;;;;;;;32.42;27.55;98909.42;1689521;85;20931;-73
2022/06/10 12:32:29;;;;;;;5.87;2.02;;;;;;;32.55;27.22;98906.27;1689222;84;21248;-72
2022/06/10 12:35:04;;;;;;;3.42;1.95;;;;;;;32.69;27.34;98906.88;1689374;85;20982;-73